Villa Adela, Argentina
Current Conditions -  °F | °C
As of 2:00 PM on Thursday 30 Oct 2014 (Local Time) from SACO Reporting Station
Scattered Clouds Scattered Clouds  
Wind Chill: 79°   Ceiling: Unl
Heat Index: 79°   Visibility: 6mi
Dew Point: 46°   Wind: 14mph
Humidity: 32%   Direction: 50°NE
Pressure: 29.88"   Gusts: NA
Location:  29.32°S, 64.79°W
Report Text: SACO 301700Z 05012KT 9999 FEW020 SCT10026/08 Q1012
Loading
Personal Weather Stations






























Interactive Weather Map
Tropical Storm Tracking
New forecast layout! Learn more

10-Day Weather Forecast

Advertisements
Track Severe Weather on mobile